Terminal Aerodrome Forecast
Issued by NWS Greer, SC

Home | Current Version | Previous Version | Text Only | Print | Product List | Glossary On
Versions: 1 2 3 4 5 6 7 8 9 10 11 12 13 14 15
000
FTUS42 KGSP 272328
TAFGSP
TAF
KGSP 272328Z 2800/2824 23004KT P6SM BKN080
     FM280800 24006KT 6SM -RA OVC019
     FM281300 22007KT 3SM -RA BR OVC003
     FM281600 22008KT 2SM -RA BR OVC003
     FM281900 22005KT P6SM -SHRA OVC005
     FM282100 24004KT P6SM -SHRA OVC017=

USA.gov is the U.S. government's official web portal to all federal, state and local government web resources and services.